25. Juni 2022

Uhrzeit Code Wetter Temp. Sichtweite Wolkendecke Wind METAR/SPECI
3:00 am
V
61 °F 6¼ mi+ - 120° 120° 4 kt METAR LFCK 250100Z AUTO 12004KT CAVOK 16/13 Q1015
2:30 am
V
63 °F 6¼ mi+ - 080° 080° 3 kt METAR LFCK 250030Z AUTO 08003KT CAVOK 17/14 Q1015
2:00 am
V
64 °F 6¼ mi+ - 070° 070° 3 kt METAR LFCK 250000Z AUTO 07003KT CAVOK 18/14 Q1015
1:30 am
V
63 °F 6¼ mi+ - 070° 070° 5 kt METAR LFCK 242330Z AUTO 07005KT CAVOK 17/14 Q1015
1:00 am
V
61 °F 6¼ mi+ - 130° 130° 5 kt METAR LFCK 242300Z AUTO 13005KT CAVOK 16/14 Q1015
12:30 am
V
63 °F 6¼ mi+ - 070° 070° 4 kt METAR LFCK 242230Z AUTO 07004KT CAVOK 17/14 Q1016
12:00 am
V
63 °F 6¼ mi+ - Var Var 3 kt METAR LFCK 242200Z AUTO VRB03KT CAVOK 17/15 Q1016

24. Juni 2022

Uhrzeit Code Wetter Temp. Sichtweite Wolkendecke Wind METAR/SPECI
11:30 pm
V
64 °F 6¼ mi+ - Var Var 3 kt METAR LFCK 242130Z AUTO VRB03KT CAVOK 18/15 Q1016
11:00 pm
V
64 °F 6¼ mi+ - 130° 130° 3 kt METAR LFCK 242100Z AUTO 13003KT CAVOK 18/15 Q1016 NOSIG
10:30 pm
V
64 °F 6¼ mi+ - 070° 070° 2 kt METAR LFCK 242030Z AUTO 07002KT CAVOK 18/15 Q1015 NOSIG
10:00 pm
V
68 °F 6¼ mi+ - Var 000° 0 kt METAR LFCK 242000Z AUTO 00000KT CAVOK 20/15 Q1015 NOSIG
9:30 pm
V
72 °F 6¼ mi+ - 200° 200° 3 kt METAR LFCK 241930Z AUTO 20003KT CAVOK 22/15 Q1015 NOSIG
9:00 pm
V
72 °F 6¼ mi+ - 310° 310° 2 kt METAR LFCK 241900Z AUTO 31002KT CAVOK 22/15 Q1015 NOSIG
8:30 pm
V
73 °F 6¼ mi+ - 260° 260° 4 kt METAR LFCK 241830Z AUTO 26004KT 230V290 CAVOK 23/13 Q1015 NOSIG
8:00 pm
V
75 °F 6¼ mi+ - 270° 270° 5 kt METAR LFCK 241800Z AUTO 27005KT CAVOK 24/13 Q1014 NOSIG
7:30 pm
V
75 °F 6¼ mi+ - 270° 270° 6 kt METAR LFCK 241730Z AUTO 27006KT CAVOK 24/13 Q1014 NOSIG
7:00 pm
V
75 °F 6¼ mi+ - 310° 310° 6 kt METAR LFCK 241700Z AUTO 31006KT CAVOK 24/13 Q1014 NOSIG
6:30 pm
V
79 °F 6¼ mi+ - 290° 290° 8 kt METAR LFCK 241630Z AUTO 29008KT 240V320 CAVOK 26/13 Q1014 NOSIG
6:00 pm
V
77 °F 6¼ mi+ 5.800 ft 350° 350° 4 kt METAR LFCK 241600Z AUTO 35004KT 300V030 9999 FEW049 BKN058 25/13 Q1014 NOSIG
5:30 pm
V
77 °F 6¼ mi+ - 320° 320° 7 kt METAR LFCK 241530Z AUTO 32007KT 260V360 CAVOK 25/13 Q1014 NOSIG
5:00 pm
V
77 °F 6¼ mi+ - 290° 290° 8 kt METAR LFCK 241500Z AUTO 29008KT 250V330 9999 FEW049 25/13 Q1015 NOSIG
4:30 pm
V
75 °F 6¼ mi+ - 290° 290° 11 kt METAR LFCK 241430Z AUTO 29011KT 9999 SCT047 24/12 Q1015 NOSIG
4:00 pm
V
75 °F 6¼ mi+ 4.600 ft 290° 290° 8 kt METAR LFCK 241400Z AUTO 29008KT 250V360 9999 BKN046 BKN058 24/13 Q1015 NOSIG
3:30 pm
V
73 °F 6¼ mi+ 4.700 ft 310° 310° 8 kt METAR LFCK 241330Z AUTO 31008KT 270V010 9999 SCT041 BKN047 23/13 Q1015 NOSIG
3:00 pm
V
72 °F 6¼ mi+ 3.700 ft 340° 340° 5 kt METAR LFCK 241300Z AUTO 34005KT 230V020 9999 BKN037 BKN043 22/14 Q1015 NOSIG
2:30 pm
V
72 °F 6¼ mi+ 3.500 ft 310° 310° 3 kt METAR LFCK 241230Z AUTO 31003KT 270V360 9999 BKN035 22/13 Q1015 NOSIG
2:00 pm
V
70 °F 6¼ mi+ 3.300 ft 310° 310° 6 kt METAR LFCK 241200Z AUTO 31006KT 270V010 9999 BKN033 BKN041 21/14 Q1016 NOSIG
1:30 pm
M
70 °F 6¼ mi+ 2.600 ft 280° 280° 8 kt METAR LFCK 241130Z AUTO 28008KT 250V350 9999 BKN026 BKN035 21/15 Q1016 NOSIG
1:00 pm
M
66 °F 6¼ mi+ 2.600 ft 310° 310° 6 kt METAR LFCK 241100Z AUTO 31006KT 260V360 9999 BKN026 BKN031 19/13 Q1016 NOSIG
12:30 pm
M
68 °F 6¼ mi+ 2.400 ft 350° 350° 5 kt METAR LFCK 241030Z AUTO 35005KT 290V060 9999 FEW016 BKN024 BKN031 20/14 Q1016 NOSIG
12:00 pm
M
66 °F 6¼ mi+ 2.400 ft 270° 270° 4 kt METAR LFCK 241000Z AUTO 27004KT 210V350 9999 SCT017 BKN024 BKN031 19/14 Q1016 TEMPO 4000 -SHRA BKN025 SCT050CB
11:30 am
V
64 °F 6¼ mi+ 3.300 ft 280° 280° 5 kt METAR LFCK 240930Z AUTO 28005KT 230V330 9999 SCT015 BKN033 BKN078 18/14 Q1016 TEMPO 4000 -SHRA BKN025 SCT050CB
11:00 am
V
63 °F 6¼ mi+ - Var Var 2 kt METAR LFCK 240900Z AUTO VRB02KT 9999 ///TCU 17/14 Q1016 TEMPO 4000 -SHRA BKN025 SCT050CB
10:30 am
V
61 °F 6¼ mi+ - Var Var 2 kt METAR LFCK 240830Z AUTO VRB02KT 9999 ///TCU 16/13 Q1016 NOSIG
10:00 am
V
61 °F 6¼ mi+ 8.400 ft Var Var 3 kt METAR LFCK 240800Z AUTO VRB03KT 9999 -RA FEW027/// OVC084/// ///TCU 16/13 Q1016 NOSIG
9:30 am
V
59 °F 6¼ mi+ 8.800 ft 180° 180° 5 kt METAR LFCK 240730Z AUTO 18005KT 150V220 9999 FEW034/// BKN088/// OVC100/// ///CB 15/14 Q1017 BECMG 30010KT
9:00 am
V
57 °F 6¼ mi+ - 190° 190° 7 kt METAR LFCK 240700Z AUTO 19007KT 150V220 9999 -TSRA ///CB 14/13 Q1017 TEMPO BKN006 BKN020TCU FEW070CB BECMG NSW
8:30 am
M
59 °F 4⅜ mi 5.400 ft 310° 310° 11 kt METAR LFCK 240630Z AUTO 31011KT 260V340 7000 TSRA FEW013/// SCT044/// BKN054/// ///CB 15/13 Q1016 TEMPO BKN006 BKN020TCU FEW070CB BECMG NSW
8:00 am
V
64 °F 6¼ mi+ - 150° 150° 5 kt METAR LFCK 240600Z AUTO 15005KT 9999 ///CB 18/16 Q1014 TEMPO TSRA BKN006 BKN020TCU FEW070CB
7:30 am
V
63 °F 6¼ mi+ 6.400 ft Var Var 3 kt METAR LFCK 240530Z AUTO VRB03KT 9999 FEW015/// SCT035/// BKN064/// ///CB 17/15 Q1014
7:00 am
V
63 °F 6¼ mi+ 6.000 ft 010° 010° 4 kt METAR LFCK 240500Z AUTO 01004KT 340V080 9999 FEW032/// BKN060/// OVC094/// ///CB 17/16 Q1015
6:30 am
M
63 °F 6¼ mi+ 2.700 ft 350° 350° 4 kt METAR LFCK 240430Z AUTO 35004KT 9999 FEW011/// OVC027/// ///CB 17/16 Q1015
6:00 am
V
63 °F 6¼ mi+ 6.400 ft 330° 330° 6 kt METAR LFCK 240400Z AUTO 33006KT 9999 FEW010/// SCT015/// OVC064/// ///CB 17/17 Q1015
5:30 am
V
63 °F 6¼ mi+ 14.000 ft 250° 250° 5 kt METAR LFCK 240330Z AUTO 25005KT 9999 FEW030/// SCT068/// BKN140/// ///CB 17/17 Q1014
5:00 am
M
64 °F 6¼ mi+ 1.900 ft 240° 240° 2 kt METAR LFCK 240300Z AUTO 24002KT 9999 SCT006 BKN019 BKN033 18/17 Q1014
4:30 am
M
64 °F 6¼ mi+ 2.300 ft 290° 290° 1 kt METAR LFCK 240230Z AUTO 29001KT 9999 FEW005/// BKN023/// BKN043/// ///TCU 18/17 Q1014
4:00 am
I
64 °F 6¼ mi+ 500 ft 310° 310° 4 kt METAR LFCK 240200Z AUTO 31004KT 280V340 9999 -RA BKN005/// BKN100/// OVC120/// ///CB 18/17 Q1014
3:30 am
I
64 °F 6¼ mi+ 500 ft 280° 280° 5 kt METAR LFCK 240130Z AUTO 28005KT 9999 -RA BKN005/// BKN014/// OVC110/// ///TCU 18/17 Q1015
3:00 am
V
64 °F 6¼ mi+ 8.000 ft Var Var 3 kt METAR LFCK 240100Z AUTO VRB03KT 9999 FEW013 SCT050 BKN080 18/17 Q1015
2:30 am
V
64 °F 6¼ mi+ 14.000 ft Var 000° 0 kt METAR LFCK 240030Z AUTO 00000KT 9999 FEW013 SCT042 OVC140 18/17 Q1015
2:00 am
V
64 °F 6¼ mi+ - 110° 110° 1 kt METAR LFCK 240000Z AUTO 11001KT CAVOK 18/17 Q1015
1:30 am
V
64 °F 6¼ mi+ 3.400 ft 210° 210° 2 kt METAR LFCK 232330Z AUTO 21002KT 9999 FEW015 BKN034 BKN042 18/17 Q1015
1:00 am
M
64 °F 6¼ mi+ 1.300 ft 240° 240° 5 kt METAR LFCK 232300Z AUTO 24005KT 9999 BKN013 BKN029 BKN035 18/17 Q1015
12:30 am
M
64 °F 6¼ mi+ 1.600 ft 230° 230° 4 kt METAR LFCK 232230Z AUTO 23004KT 9999 OVC016 18/17 Q1015
12:00 am
M
66 °F 6¼ mi+ 1.200 ft 250° 250° 6 kt METAR LFCK 232200Z AUTO 25006KT 9999 -DZ BKN012/// OVC018/// ///CB 19/17 Q1016

23. Juni 2022

Uhrzeit Code Wetter Temp. Sichtweite Wolkendecke Wind METAR/SPECI
11:30 pm
V
66 °F 6¼ mi+ 9.400 ft Var Var 2 kt METAR LFCK 232130Z AUTO VRB02KT 9999 -RA FEW015/// BKN094/// OVC110/// ///CB 19/17 Q1015
11:00 pm
V
68 °F 6¼ mi+ - 290° 290° 10 kt METAR LFCK 232100Z AUTO 29010KT 9999 ///CB 20/17 Q1015 NOSIG
10:30 pm
V
68 °F 6¼ mi+ 4.900 ft 280° 280° 4 kt METAR LFCK 232030Z AUTO 28004KT 9999 SCT040/// BKN049/// BKN056/// ///CB 20/18 Q1015 NOSIG
10:00 pm
V
66 °F 6¼ mi+ 6.200 ft Var Var 2 kt METAR LFCK 232000Z AUTO VRB02KT 9999 FEW040/// BKN062/// BKN078/// ///CB 19/18 Q1014 TEMPO 28018G30KT 4000 TSRA
9:30 pm
V
66 °F 6¼ mi+ 8.200 ft Var 000° 0 kt METAR LFCK 231930Z AUTO 00000KT 9999 FEW037/// SCT062/// BKN082/// ///CB 19/18 Q1014 TEMPO 4000 TSRA BECMG 27010KT
9:00 pm
M
68 °F 3¾ mi 6.600 ft 290° 290° 6 kt METAR LFCK 231900Z AUTO 29006KT 6000 TSRA FEW033/// SCT045/// BKN066/// ///CB 20/18 Q1014 TEMPO 28018G30KT 4000 TSRA
8:30 pm
V
70 °F 6¼ mi+ 6.400 ft 130° 130° 8 kt METAR LFCK 231830Z AUTO 13008KT 9999 FEW042/// BKN064/// OVC090/// ///CB 21/17 Q1013 TEMPO 28018G30KT 4000 TSRA
8:00 pm
V
73 °F 6¼ mi+ 5.400 ft 120° 120° 6 kt METAR LFCK 231800Z AUTO 12006KT 9999 FEW047/// BKN054/// BKN092/// ///CB 23/16 Q1012 TEMPO VRB23G40KT 4000 TSRAGR
7:30 pm
V
75 °F 6¼ mi+ - 130° 130° 12 kt METAR LFCK 231730Z AUTO 13012KT 100V160 9999 ///CB 24/17 Q1011 TEMPO VRB23G40KT 4000 TSRA
7:00 pm
V
81 °F 6¼ mi+ - 050° 050° 9 kt METAR LFCK 231700Z AUTO 05009KT 020V080 9999 ///CB 27/16 Q1011 TEMPO VRB23G40KT 4000 TSRA
6:30 pm
V
81 °F 6¼ mi+ - 050° 050° 6 kt METAR LFCK 231630Z AUTO 05006KT 010V080 9999 ///CB 27/16 Q1011 TEMPO VRB23G40KT 4000 TSRA
6:00 pm
V
79 °F 6¼ mi+ - 360° 360° 10 kt METAR LFCK 231600Z AUTO 36010KT 9999 ///CB 26/16 Q1011 TEMPO VRB23G40KT 4000 TSRA
5:30 pm
V
81 °F 6¼ mi+ - 330° 330° 8 kt METAR LFCK 231530Z AUTO 33008KT 290V030 9999 ///TCU 27/16 Q1011 TEMPO VRB23G40KT 4000 TSRA BKN040CB
5:00 pm
V
82 °F 6¼ mi+ - 020° 020° 9 kt METAR LFCK 231500Z AUTO 02009KT 350V050 CAVOK 28/17 Q1011 TEMPO VRB23G40KT 4000 TSRA BKN040CB
4:30 pm
V
81 °F 6¼ mi+ - 360° 360° 10 kt METAR LFCK 231430Z AUTO 36010KT 340V040 9999 SCT044 27/17 Q1011 TEMPO VRB23G40KT 4000 TSRA BKN040CB
4:00 pm
V
81 °F 6¼ mi+ - 300° 300° 4 kt METAR LFCK 231400Z AUTO 30004KT 250V010 9999 SCT043 27/17 Q1011 TEMPO VRB23G40KT 4000 TSRA BKN040CB
3:30 pm
V
81 °F 6¼ mi+ - 360° 360° 8 kt METAR LFCK 231330Z AUTO 36008KT 320V030 CAVOK 27/18 Q1011 TEMPO VRB23G40KT 4000 TSRA BKN040CB
3:00 pm
V
79 °F 6¼ mi+ - 010° 010° 11 kt METAR LFCK 231300Z AUTO 01011KT 340V040 9999 SCT032 SCT038 26/18 Q1011 TEMPO VRB23G40KT 4000 TSRA BKN040CB
2:30 pm
V
81 °F 6¼ mi+ 3.600 ft 310° 310° 10 kt METAR LFCK 231230Z AUTO 31010KT 260V350 9999 BKN036/// ///CB 27/18 Q1011 TEMPO VRB23G40KT 4000 TSRA
2:00 pm
V
77 °F 6¼ mi+ - 280° 280° 12 kt METAR LFCK 231200Z AUTO 28012KT 9999 VCTS SCT035/// SCT045/// ///CB 25/17 Q1011 TEMPO VRB23G40KT 4000 TSRA
1:30 pm
V
75 °F 6¼ mi+ 4.800 ft 280° 280° 24 kt METAR LFCK 231130Z AUTO 28024KT 9999 VCTS FEW025/// BKN048/// BKN054/// ///CB 24/17 Q1011 TEMPO VRB23G40KT 2000 TSRA
1:00 pm
V
84 °F 6¼ mi+ - Var Var 6 kt METAR LFCK 231100Z AUTO VRB06KT 9999 FEW047/// SCT064/// ///CB 29/17 Q1010 TEMPO VRB23G40KT 2000 TSRA
12:30 pm
V
82 °F 6¼ mi+ - Var Var 8 kt METAR LFCK 231030Z AUTO VRB08KT 9999 FEW046 28/17 Q1010 TEMPO VRB23G40KT 2000 TSRA BKN040CB
12:00 pm
V
82 °F 6¼ mi+ - 130° 130° 10 kt METAR LFCK 231000Z AUTO 13010KT 100V160 9999 FEW046 28/17 Q1010 BECMG 27008KT BKN022 SCT025TCU
11:30 am
V
75 °F 6¼ mi+ - Var Var 3 kt METAR LFCK 230930Z AUTO VRB03KT 9999 FEW039 SCT052 24/19 Q1010 BECMG SCT035TCU
11:00 am
V
75 °F 6¼ mi+ - 270° 270° 5 kt METAR LFCK 230900Z AUTO 27005KT 240V300 9999 FEW035 24/19 Q1011 BECMG SCT035TCU
10:30 am
V
72 °F 6¼ mi+ - 270° 270° 6 kt METAR LFCK 230830Z AUTO 27006KT CAVOK 22/18 Q1011 BECMG SCT035TCU
10:00 am
V
72 °F 6¼ mi+ - Var Var 1 kt METAR LFCK 230800Z AUTO VRB01KT CAVOK 22/18 Q1010 NOSIG
9:30 am
V
68 °F 6¼ mi+ - Var Var 2 kt METAR LFCK 230730Z AUTO VRB02KT CAVOK 20/17 Q1011 NOSIG
9:00 am
V
66 °F 6¼ mi+ - Var Var 2 kt METAR LFCK 230700Z AUTO VRB02KT CAVOK 19/17 Q1011 NOSIG
8:30 am
V
66 °F 6¼ mi+ - Var Var 2 kt METAR LFCK 230630Z AUTO VRB02KT CAVOK 19/17 Q1011 NOSIG
8:00 am
V
64 °F 6¼ mi+ - 050° 050° 3 kt METAR LFCK 230600Z AUTO 05003KT CAVOK 18/17 Q1012 NOSIG
7:30 am
V
63 °F 6¼ mi+ 11.000 ft Var Var 2 kt METAR LFCK 230530Z AUTO VRB02KT 9999 FEW018 BKN110 17/16 Q1012 NOSIG
7:00 am
V
63 °F 6¼ mi+ - 220° 220° 2 kt METAR LFCK 230500Z AUTO 22002KT CAVOK 17/16 Q1011
6:30 am
V
61 °F 6¼ mi+ - 070° 070° 2 kt METAR LFCK 230430Z AUTO 07002KT CAVOK 16/16 Q1011
6:00 am
V
61 °F 6¼ mi+ - Var Var 2 kt METAR LFCK 230400Z AUTO VRB02KT CAVOK 16/15 Q1012
5:30 am
V
63 °F 6¼ mi+ - Var Var 3 kt METAR LFCK 230330Z AUTO VRB03KT CAVOK 17/16 Q1012
5:00 am
V
63 °F 6¼ mi+ - 100° 100° 2 kt METAR LFCK 230300Z AUTO 10002KT CAVOK 17/16 Q1012
4:30 am
V
63 °F 6¼ mi+ - Var Var 1 kt METAR LFCK 230230Z AUTO VRB01KT CAVOK 17/16 Q1012
4:00 am
V
63 °F 6¼ mi+ - 100° 100° 3 kt METAR LFCK 230200Z AUTO 10003KT CAVOK 17/16 Q1012
3:30 am
V
63 °F 6¼ mi+ - Var Var 2 kt METAR LFCK 230130Z AUTO VRB02KT CAVOK 17/16 Q1012
3:00 am
V
64 °F 6¼ mi+ - 170° 170° 3 kt METAR LFCK 230100Z AUTO 17003KT CAVOK 18/17 Q1013
2:30 am
V
64 °F 6¼ mi+ - Var Var 3 kt METAR LFCK 230030Z AUTO VRB03KT 9999 ///CB 18/17 Q1013
2:00 am
V
64 °F 6¼ mi+ - Var Var 2 kt METAR LFCK 230000Z AUTO VRB02KT 9999 ///CB 18/17 Q1013
1:30 am
V
64 °F 6¼ mi+ - Var Var 2 kt METAR LFCK 222330Z AUTO VRB02KT 9999 ///CB 18/18 Q1013
1:00 am
V
64 °F 5⅝ mi - Var Var 2 kt METAR LFCK 222300Z AUTO VRB02KT 9000 ///CB 18/18 Q1013
12:30 am
V
66 °F 5⅝ mi - Var Var 2 kt METAR LFCK 222230Z AUTO VRB02KT 9000 NSC 19/18 Q1013
12:00 am
V
66 °F 6¼ mi+ - 060° 060° 3 kt METAR LFCK 222200Z AUTO 06003KT CAVOK 19/18 Q1013

22. Juni 2022

Uhrzeit Code Wetter Temp. Sichtweite Wolkendecke Wind METAR/SPECI
11:30 pm
V
66 °F 6¼ mi+ - Var Var 2 kt METAR LFCK 222130Z AUTO VRB02KT CAVOK 19/18 Q1012 TEMPO SHRA FEW055CB
11:00 pm
V
68 °F 6¼ mi+ - Var Var 1 kt METAR LFCK 222100Z AUTO VRB01KT 9999 ///TCU 20/18 Q1012 TEMPO SHRA FEW055CB
10:30 pm
V
68 °F 6¼ mi+ - Var Var 2 kt METAR LFCK 222030Z AUTO VRB02KT 9999 ///CB 20/18 Q1012 TEMPO SHRA
10:00 pm
V
70 °F 6¼ mi+ - 140° 140° 4 kt METAR LFCK 222000Z AUTO 14004KT 090V160 9999 ///CB 21/19 Q1011 TEMPO SHRA
9:30 pm
V
70 °F 6¼ mi+ - 110° 110° 5 kt METAR LFCK 221930Z AUTO 11005KT 080V140 9999 ///CB 21/20 Q1011 TEMPO SHRA
9:00 pm
V
72 °F 6¼ mi+ 4.900 ft 230° 230° 3 kt METAR LFCK 221900Z AUTO 23003KT 190V300 9999 -RA FEW015/// BKN049/// BKN072/// ///CB 22/19 Q1011 TEMPO VRB15G25KT 3000 TSRA
8:30 pm
V
72 °F 6¼ mi+ - 160° 160° 5 kt METAR LFCK 221830Z AUTO 16005KT 100V200 9999 -TSRA ///CB 22/20 Q1011 TEMPO VRB15G25KT 3000 TSRA
7:30 pm
I
77 °F 1⅞ mi 5.400 ft Var Var 4 kt METAR LFCK 221730Z AUTO VRB04KT 3100 RA HZ VCTS SCT046/// BKN054/// OVC068/// ///CB 25/18 Q1010 TEMPO VRB15G25KT SHRA
7:00 pm
V
82 °F 6¼ mi+ 4.900 ft 230° 230° 4 kt METAR LFCK 221700Z AUTO 23004KT 140V280 9999 BKN049/// BKN058/// BKN100/// ///CB 28/17 Q1010 TEMPO VRB15G25KT 4500 SHRA
Ältere Daten

Laden Sie unsere App herunter

Einfacher Zugriff auf das gesamte Flugwetter auf Ihrem Mobiltelefon und Tablet.
Mit vielen Funktionen, die auf der Website nicht verfügbar sind, wie Offline-Unterstützung und eine persönliche Flughafenliste.

Wir und Dritte verfolgen dein Internetverhalten auf unserer Website mit Cookies. Wenn du fortfährst, gehen wir davon aus, dass du mit unserer Cookie-Richtlinie einverstanden bist. Mehr erfahren